Philadelphia, Pennsylvania
Current Conditions -  °F | °C
As of 10:54 AM on Friday 19 Dec 2014 (Local Time) from KPHL Reporting Station
Overcast Overcast  
Wind Chill: 33°   Ceiling: 3500
Heat Index: 40°   Visibility: 10mi
Dew Point: 24°   Wind: 13mph
Humidity: 53%   Direction: 320°NW
Pressure: 30.1"   Gusts: NA
Location:  39.95°N, 75.16°W
Report Text: KPHL 191554Z 32011KT 10SM OVC035 04/M04 A3010 RMK AO2 SLP191 T00441044
Loading
Personal Weather Stations






























Interactive Weather Map New forecast layout! Learn more

10-Day Weather Forecast

Advertisements
Track Severe Weather on mobile